Time;durP1;ratioP1;P1;durP2;ratioP2;P2;SDS_P1;SDS_P2;PMS_P1;PMS_P2;Temp;Humidity;BMP_temperature;BMP_pressure;BME280_temperature;BME280_humidity;BME280_pressure;Samples;Min_cycle;Max_cycle;Signal;HPM_P1;HPM_P2
2021/01/07 00:01:19;;;;;;;24.40;11.23;;;2.60;99.90;;;;;;5081992;28;20058;-51
2021/01/07 00:03:45;;;;;;;23.27;11.52;;;2.60;99.90;;;;;;5072509;28;20024;-47
2021/01/07 00:06:13;;;;;;;27.17;12.65;;;2.60;99.90;;;;;;5084341;28;20073;-49
2021/01/07 00:08:40;;;;;;;27.85;12.30;;;2.60;99.90;;;;;;5082487;28;20512;-47
2021/01/07 00:11:07;;;;;;;24.90;11.68;;;2.60;99.90;;;;;;5084376;28;20067;-48
2021/01/07 00:13:34;;;;;;;22.98;10.63;;;2.60;99.90;;;;;;5083533;28;20289;-47
2021/01/07 00:16:02;;;;;;;23.73;10.85;;;2.60;99.90;;;;;;5083824;28;20024;-48
2021/01/07 00:18:27;;;;;;;27.08;12.00;;;2.70;99.90;;;;;;5084654;28;20028;-48
2021/01/07 00:20:54;;;;;;;25.92;12.30;;;2.60;99.90;;;;;;5084283;28;20012;-51
2021/01/07 00:23:20;;;;;;;25.83;11.90;;;2.60;99.90;;;;;;5082793;28;20516;-46
2021/01/07 00:25:51;;;;;;;28.65;12.82;;;2.60;99.90;;;;;;5082724;28;20024;-47
2021/01/07 00:28:18;;;;;;;24.05;11.38;;;2.60;99.90;;;;;;5083932;28;20105;-47
2021/01/07 00:30:45;;;;;;;28.30;14.13;;;2.70;99.90;;;;;;5082882;28;20077;-48
2021/01/07 00:33:18;;;;;;;23.42;13.13;;;2.60;99.90;;;;;;5082925;28;20448;-46
2021/01/07 00:35:44;;;;;;;26.13;13.27;;;2.70;99.90;;;;;;5082260;28;20297;-50
2021/01/07 00:38:10;;;;;;;25.27;11.90;;;2.70;99.90;;;;;;5083307;28;20032;-47
2021/01/07 00:40:36;;;;;;;26.55;12.30;;;2.70;99.90;;;;;;5083626;28;20020;-47
2021/01/07 00:43:02;;;;;;;32.88;14.65;;;2.70;99.90;;;;;;5084603;28;20076;-47
2021/01/07 00:45:29;;;;;;;24.77;12.20;;;2.70;99.90;;;;;;5084416;28;20415;-48
2021/01/07 00:47:54;;;;;;;24.73;12.63;;;2.70;99.90;;;;;;5084569;28;20533;-48
2021/01/07 00:50:22;;;;;;;28.00;12.05;;;2.60;99.90;;;;;;5084303;28;20056;-48
2021/01/07 00:52:47;;;;;;;28.27;13.23;;;2.70;99.90;;;;;;5084004;28;20133;-49
2021/01/07 00:55:16;;;;;;;31.13;15.13;;;2.80;99.90;;;;;;5084340;28;20057;-47
2021/01/07 00:57:42;;;;;;;28.88;13.98;;;2.90;99.90;;;;;;5083939;28;20043;-46
2021/01/07 01:00:09;;;;;;;32.08;14.07;;;2.80;99.90;;;;;;5083951;28;20051;-47
2021/01/07 01:02:35;;;;;;;32.38;14.68;;;2.80;99.90;;;;;;5084335;28;20024;-47
2021/01/07 01:05:03;;;;;;;29.83;14.27;;;2.80;99.90;;;;;;5084857;28;20066;-47
2021/01/07 01:07:29;;;;;;;29.23;14.77;;;2.70;99.90;;;;;;5088224;28;20525;-47
2021/01/07 01:09:55;;;;;;;33.28;15.48;;;2.80;99.90;;;;;;5088563;28;20119;-49
2021/01/07 01:12:22;;;;;;;32.00;15.63;;;2.80;99.90;;;;;;5088372;28;20024;-48
2021/01/07 01:14:48;;;;;;;33.97;15.63;;;2.60;99.90;;;;;;5087387;28;20500;-46
2021/01/07 01:17:14;;;;;;;34.58;16.20;;;2.60;99.90;;;;;;5088631;28;20402;-47
2021/01/07 01:19:40;;;;;;;36.55;16.02;;;2.50;99.90;;;;;;5087682;28;20032;-48
2021/01/07 01:22:07;;;;;;;33.42;16.30;;;2.50;99.90;;;;;;5088476;28;20382;-49
2021/01/07 01:24:32;;;;;;;32.42;15.68;;;2.40;99.90;;;;;;5088005;28;20093;-49
2021/01/07 01:27:02;;;;;;;32.92;15.45;;;2.40;99.90;;;;;;5088560;28;20355;-47
2021/01/07 01:29:28;;;;;;;30.38;15.82;;;2.40;99.90;;;;;;5088678;28;20157;-47
2021/01/07 01:31:54;;;;;;;33.70;16.35;;;2.30;99.90;;;;;;5088519;28;20107;-46
2021/01/07 01:34:22;;;;;;;35.75;16.33;;;2.20;99.90;;;;;;5087482;28;20498;-47
2021/01/07 01:36:49;;;;;;;31.70;15.70;;;2.10;99.90;;;;;;5087439;28;20059;-48
2021/01/07 01:39:16;;;;;;;35.42;16.42;;;2.10;99.90;;;;;;5087853;28;20028;-46
2021/01/07 01:41:43;;;;;;;32.80;14.95;;;2.00;99.90;;;;;;5087221;28;20044;-46
2021/01/07 01:44:10;;;;;;;31.85;15.13;;;2.00;99.90;;;;;;5087481;28;20223;-48
2021/01/07 01:46:36;;;;;;;32.47;15.63;;;1.90;99.90;;;;;;5087485;28;20082;-46
2021/01/07 01:49:02;;;;;;;34.08;15.55;;;1.90;99.90;;;;;;5087238;28;20025;-47
2021/01/07 01:51:30;;;;;;;34.92;15.73;;;2.00;99.90;;;;;;5088353;28;20111;-46
2021/01/07 01:53:55;;;;;;;33.30;15.43;;;1.90;99.90;;;;;;5087705;28;20024;-50
2021/01/07 01:56:21;;;;;;;31.65;14.93;;;1.90;99.90;;;;;;5087613;28;20031;-47
2021/01/07 01:58:49;;;;;;;33.30;15.52;;;1.90;99.90;;;;;;5087113;28;20032;-48
2021/01/07 02:01:17;;;;;;;28.73;13.85;;;1.80;99.90;;;;;;5087243;28;20119;-48
2021/01/07 02:03:43;;;;;;;33.50;15.85;;;1.80;99.90;;;;;;5086625;28;20027;-46
2021/01/07 02:06:12;;;;;;;37.20;15.85;;;1.70;99.90;;;;;;5087459;28;20024;-50
2021/01/07 02:08:42;;;;;;;34.25;15.13;;;1.70;99.90;;;;;;5087016;28;20497;-47
2021/01/07 02:11:10;;;;;;;35.22;15.45;;;1.80;99.90;;;;;;5087209;28;20087;-49
2021/01/07 02:13:39;;;;;;;35.00;16.45;;;1.80;99.90;;;;;;5086388;28;20105;-46
2021/01/07 02:16:05;;;;;;;32.42;16.63;;;1.80;99.90;;;;;;5086950;28;20085;-46
2021/01/07 02:18:31;;;;;;;33.13;15.23;;;1.90;99.90;;;;;;5086193;28;20028;-47
2021/01/07 02:20:59;;;;;;;37.40;16.77;;;1.80;99.90;;;;;;5087378;28;20106;-46
2021/01/07 02:23:26;;;;;;;40.92;17.10;;;1.90;99.90;;;;;;5087606;28;20027;-47
2021/01/07 02:25:52;;;;;;;58.53;25.92;;;1.80;99.90;;;;;;5086364;28;20028;-48
2021/01/07 02:28:18;;;;;;;68.15;28.75;;;1.80;99.90;;;;;;5086973;28;20486;-46
2021/01/07 02:30:43;;;;;;;68.68;29.05;;;1.80;99.90;;;;;;5085437;28;20052;-49
2021/01/07 02:33:09;;;;;;;58.85;24.90;;;1.80;99.90;;;;;;5086546;28;20434;-48
2021/01/07 02:35:36;;;;;;;52.47;23.20;;;1.80;99.90;;;;;;5086576;28;20066;-48
2021/01/07 02:38:02;;;;;;;42.47;19.50;;;1.80;99.90;;;;;;5086724;28;20032;-50
2021/01/07 02:40:30;;;;;;;44.45;19.95;;;1.80;99.90;;;;;;5086527;28;20035;-48
2021/01/07 02:42:55;;;;;;;46.33;18.83;;;1.80;99.90;;;;;;5086815;28;20046;-46
2021/01/07 02:45:21;;;;;;;39.60;17.60;;;1.80;99.90;;;;;;5086416;28;20024;-47
2021/01/07 02:47:46;;;;;;;37.50;16.80;;;1.80;99.90;;;;;;5085990;28;20028;-49
2021/01/07 02:50:12;;;;;;;36.60;17.40;;;1.80;99.90;;;;;;5086333;28;20082;-47
2021/01/07 02:52:38;;;;;;;37.20;16.13;;;1.80;99.90;;;;;;5086332;28;20027;-46
2021/01/07 02:55:05;;;;;;;36.70;16.35;;;1.70;99.90;;;;;;5086083;28;20414;-46
2021/01/07 02:57:31;;;;;;;33.83;15.45;;;1.60;99.90;;;;;;5086151;28;20023;-47
2021/01/07 02:59:57;;;;;;;32.60;14.80;;;1.60;99.90;;;;;;5086396;28;20040;-49
2021/01/07 03:02:23;;;;;;;37.08;16.77;;;1.50;99.90;;;;;;5085981;28;20448;-46
2021/01/07 03:04:50;;;;;;;32.28;15.10;;;1.50;99.90;;;;;;5086083;28;20035;-46
2021/01/07 03:07:15;;;;;;;33.80;16.48;;;1.50;99.90;;;;;;5086122;28;20027;-46
2021/01/07 03:09:45;;;;;;;37.28;15.15;;;1.50;99.90;;;;;;5085646;28;20031;-46
2021/01/07 03:12:15;;;;;;;33.65;15.43;;;1.50;99.90;;;;;;5086002;28;20402;-46
2021/01/07 03:14:42;;;;;;;29.58;14.05;;;1.50;99.90;;;;;;5085130;28;20395;-48
2021/01/07 03:17:08;;;;;;;31.50;14.80;;;1.50;99.90;;;;;;5085568;28;20024;-47
2021/01/07 03:19:34;;;;;;;30.65;14.70;;;1.50;99.90;;;;;;5085802;28;20051;-45
2021/01/07 03:22:02;;;;;;;34.65;15.70;;;1.60;99.90;;;;;;5084205;28;20067;-47
2021/01/07 03:24:28;;;;;;;34.33;16.35;;;1.50;99.90;;;;;;5086338;28;20031;-48
2021/01/07 03:26:55;;;;;;;34.78;15.20;;;1.50;99.90;;;;;;5086134;28;20034;-48
2021/01/07 03:29:20;;;;;;;31.10;15.00;;;1.50;99.90;;;;;;5085091;28;20032;-49
2021/01/07 03:31:46;;;;;;;32.78;15.02;;;1.60;99.90;;;;;;5085018;28;20026;-47
2021/01/07 03:34:12;;;;;;;33.78;15.20;;;1.50;99.90;;;;;;5085193;28;20024;-46
2021/01/07 03:36:37;;;;;;;30.58;14.63;;;1.50;99.90;;;;;;5085560;28;20091;-48
2021/01/07 03:39:03;;;;;;;34.17;16.05;;;1.40;99.90;;;;;;5085430;28;20521;-46
2021/01/07 03:41:29;;;;;;;34.65;15.50;;;1.50;99.90;;;;;;5085350;28;20102;-48
2021/01/07 03:43:55;;;;;;;32.60;15.25;;;1.50;99.90;;;;;;5085605;28;20557;-47
2021/01/07 03:46:21;;;;;;;33.92;15.18;;;1.60;99.90;;;;;;5085069;28;20016;-46
2021/01/07 03:48:47;;;;;;;33.60;14.45;;;1.60;99.90;;;;;;5085323;28;20031;-47
2021/01/07 03:51:12;;;;;;;31.98;15.40;;;1.50;99.90;;;;;;5085372;28;20485;-46
2021/01/07 03:53:39;;;;;;;34.10;15.57;;;1.50;99.90;;;;;;5084766;28;20024;-47
2021/01/07 03:56:05;;;;;;;34.20;15.55;;;1.50;99.90;;;;;;5085285;28;20031;-47
2021/01/07 03:58:31;;;;;;;35.00;15.50;;;1.40;99.90;;;;;;5085388;28;20031;-47
2021/01/07 04:00:56;;;;;;;32.30;15.63;;;1.40;99.90;;;;;;5085209;28;20021;-47
2021/01/07 04:03:22;;;;;;;31.17;15.20;;;1.50;99.90;;;;;;5084965;28;20085;-47
2021/01/07 04:05:48;;;;;;;33.03;15.38;;;1.50;99.90;;;;;;5085065;28;20098;-47
2021/01/07 04:08:13;;;;;;;33.08;15.27;;;1.50;99.90;;;;;;5084966;28;20031;-48
2021/01/07 04:10:39;;;;;;;34.63;15.93;;;1.40;99.90;;;;;;5084638;28;20036;-47
2021/01/07 04:13:05;;;;;;;38.28;17.70;;;1.50;99.90;;;;;;5085138;28;20413;-46
2021/01/07 04:15:31;;;;;;;36.05;16.38;;;1.50;99.90;;;;;;5084067;28;20027;-49
2021/01/07 04:17:57;;;;;;;35.30;14.85;;;1.50;99.90;;;;;;5084808;28;20028;-48
2021/01/07 04:20:22;;;;;;;32.38;15.63;;;1.30;99.90;;;;;;5084541;28;20452;-47
2021/01/07 04:22:48;;;;;;;34.33;15.20;;;1.30;99.90;;;;;;5084913;28;20020;-48
2021/01/07 04:25:15;;;;;;;29.60;14.20;;;1.30;99.90;;;;;;5084941;28;20073;-46
2021/01/07 04:27:40;;;;;;;30.90;14.00;;;1.30;99.90;;;;;;5084431;28;20024;-47
2021/01/07 04:30:07;;;;;;;32.38;14.80;;;1.20;99.90;;;;;;5084743;28;20035;-48
2021/01/07 04:32:32;;;;;;;24.42;12.13;;;1.20;99.90;;;;;;5084406;28;20036;-48
2021/01/07 04:34:58;;;;;;;28.50;13.40;;;1.20;99.90;;;;;;5084779;28;20097;-48
2021/01/07 04:37:24;;;;;;;30.60;14.65;;;1.30;99.90;;;;;;5085034;28;20028;-50
2021/01/07 04:39:49;;;;;;;29.67;14.15;;;1.30;99.90;;;;;;5083244;28;20505;-49
2021/01/07 04:42:15;;;;;;;29.95;13.50;;;1.30;99.90;;;;;;5084305;28;20075;-50
2021/01/07 04:44:42;;;;;;;27.75;13.43;;;1.30;99.90;;;;;;5084274;28;20360;-47
2021/01/07 04:47:08;;;;;;;29.98;14.40;;;1.20;99.90;;;;;;5084101;28;20024;-46
2021/01/07 04:49:35;;;;;;;29.85;14.40;;;1.30;99.90;;;;;;5085921;28;20107;-47
2021/01/07 04:52:01;;;;;;;32.83;14.82;;;1.40;99.90;;;;;;5085787;28;20095;-48
2021/01/07 04:54:28;;;;;;;32.88;15.95;;;1.40;99.90;;;;;;5086714;28;20390;-48
2021/01/07 04:56:54;;;;;;;32.70;14.50;;;1.40;99.90;;;;;;5085480;28;20095;-47
2021/01/07 04:59:20;;;;;;;30.65;14.85;;;1.30;99.90;;;;;;5084546;28;20122;-49
2021/01/07 05:01:47;;;;;;;33.75;14.98;;;1.30;99.90;;;;;;5083860;28;20545;-48
2021/01/07 05:04:16;;;;;;;35.78;16.15;;;1.40;99.90;;;;;;5084090;28;20119;-49
2021/01/07 05:06:42;;;;;;;30.45;14.55;;;1.40;99.90;;;;;;5084021;28;20394;-47
2021/01/07 05:09:08;;;;;;;31.88;14.73;;;1.30;99.90;;;;;;5084368;28;20055;-48
2021/01/07 05:11:34;;;;;;;30.85;13.95;;;1.10;99.90;;;;;;5083705;28;20487;-49
2021/01/07 05:14:02;;;;;;;32.22;14.38;;;1.20;99.90;;;;;;5083342;28;20044;-46
2021/01/07 05:16:28;;;;;;;28.50;12.85;;;1.30;99.90;;;;;;5084671;28;20028;-49
2021/01/07 05:18:56;;;;;;;26.15;13.00;;;1.30;99.90;;;;;;5084433;28;20091;-47
2021/01/07 05:21:22;;;;;;;29.95;13.07;;;1.20;99.90;;;;;;5084153;28;20074;-50
2021/01/07 05:23:52;;;;;;;29.80;14.55;;;1.20;99.90;;;;;;5084309;28;20036;-47
2021/01/07 05:26:19;;;;;;;32.33;15.00;;;1.10;99.90;;;;;;5085701;28;20563;-50
2021/01/07 05:28:49;;;;;;;31.35;14.13;;;1.20;99.90;;;;;;5085516;28;20030;-46
2021/01/07 05:31:26;;;;;;;31.00;14.45;;;1.30;99.90;;;;;;5085407;28;20571;-46
2021/01/07 05:33:55;;;;;;;33.88;14.43;;;1.30;99.90;;;;;;5085333;28;20066;-47
2021/01/07 05:36:24;;;;;;;32.45;16.08;;;1.40;99.90;;;;;;5085674;28;20038;-46
2021/01/07 05:38:52;;;;;;;30.45;13.82;;;1.30;99.90;;;;;;5085065;28;20437;-46
2021/01/07 05:41:19;;;;;;;28.38;13.93;;;1.30;99.90;;;;;;5085450;28;20027;-46
2021/01/07 05:43:46;;;;;;;30.50;15.18;;;1.30;99.90;;;;;;5084617;28;20107;-48
2021/01/07 05:46:12;;;;;;;33.15;15.00;;;1.30;99.90;;;;;;5084450;28;20055;-48
2021/01/07 05:48:38;;;;;;;32.03;14.07;;;1.40;99.90;;;;;;5083842;28;20111;-47
2021/01/07 05:51:04;;;;;;;33.17;15.32;;;1.40;99.90;;;;;;5084750;28;20095;-47
2021/01/07 05:53:33;;;;;;;29.05;13.35;;;1.40;99.90;;;;;;5087253;28;20035;-49
2021/01/07 05:56:02;;;;;;;31.92;13.85;;;1.30;99.90;;;;;;5087726;28;20106;-47
2021/01/07 05:58:31;;;;;;;36.20;17.95;;;1.30;99.90;;;;;;5087838;28;20027;-49
2021/01/07 06:01:00;;;;;;;39.15;16.98;;;1.40;99.90;;;;;;5087668;28;20062;-47
2021/01/07 06:03:28;;;;;;;33.17;16.20;;;1.50;99.90;;;;;;5087823;28;20028;-46
2021/01/07 06:05:58;;;;;;;34.95;15.68;;;1.60;99.90;;;;;;5087776;28;20381;-46
2021/01/07 06:08:24;;;;;;;34.42;15.45;;;1.40;99.90;;;;;;5087349;28;20027;-48
2021/01/07 06:10:53;;;;;;;34.45;14.75;;;1.40;99.90;;;;;;5087084;28;20035;-48
2021/01/07 06:13:19;;;;;;;35.78;16.02;;;1.50;99.90;;;;;;5085097;28;21033;-46
2021/01/07 06:15:47;;;;;;;55.20;25.83;;;1.40;99.90;;;;;;5086706;28;20467;-48
2021/01/07 06:18:17;;;;;;;45.90;20.80;;;1.40;99.90;;;;;;5086887;28;20024;-47
2021/01/07 06:20:43;;;;;;;41.53;18.58;;;1.50;99.90;;;;;;5086927;28;20030;-49
2021/01/07 06:23:19;;;;;;;37.58;16.85;;;1.50;99.90;;;;;;5086766;28;20394;-47
2021/01/07 06:25:46;;;;;;;36.78;16.08;;;1.50;99.90;;;;;;5086741;28;20416;-48
2021/01/07 06:28:36;;;;;;;30.77;15.00;;;1.50;99.90;;;;;;5086726;28;20024;-50
2021/01/07 06:31:01;;;;;;;31.10;13.85;;;1.40;99.90;;;;;;5086690;28;20028;-48
2021/01/07 06:33:30;;;;;;;28.13;13.13;;;1.40;99.90;;;;;;5087226;28;20104;-50
2021/01/07 06:36:07;;;;;;;28.35;14.55;;;1.50;99.90;;;;;;5087570;28;20032;-51
2021/01/07 06:38:34;;;;;;;29.38;14.60;;;1.50;99.90;;;;;;5086487;28;20039;-48
2021/01/07 06:41:01;;;;;;;30.20;14.73;;;1.40;99.90;;;;;;5086079;28;20021;-47
2021/01/07 06:43:27;;;;;;;28.45;14.50;;;1.50;99.90;;;;;;5086699;28;20062;-48
2021/01/07 06:45:57;;;;;;;32.08;15.02;;;1.60;99.90;;;;;;5086159;28;20023;-49
2021/01/07 06:48:34;;;;;;;31.95;15.88;;;1.70;99.90;;;;;;5086081;28;20032;-47
2021/01/07 06:51:02;;;;;;;33.65;16.17;;;1.70;99.90;;;;;;5086461;28;20028;-48
2021/01/07 06:53:34;;;;;;;30.73;14.80;;;1.80;99.90;;;;;;5086661;28;20090;-50
2021/01/07 06:56:19;;;;;;;35.40;15.68;;;1.70;99.90;;;;;;5086400;28;20056;-50
2021/01/07 06:58:49;;;;;;;40.63;17.75;;;1.70;99.90;;;;;;5086130;28;20036;-47
2021/01/07 07:01:17;;;;;;;41.60;18.20;;;1.80;99.90;;;;;;5085705;28;20468;-46
2021/01/07 07:03:49;;;;;;;38.03;16.77;;;1.80;99.90;;;;;;5085284;28;20027;-48
2021/01/07 07:06:16;;;;;;;44.25;19.13;;;1.80;99.90;;;;;;5085836;28;20029;-50
2021/01/07 07:08:45;;;;;;;40.22;17.85;;;1.80;99.90;;;;;;5085901;28;20020;-48
2021/01/07 07:11:12;;;;;;;37.28;17.17;;;1.70;99.90;;;;;;5085716;28;20445;-48
2021/01/07 07:13:43;;;;;;;32.47;15.07;;;1.80;99.90;;;;;;5085263;28;20035;-50
2021/01/07 07:16:14;;;;;;;32.90;15.02;;;1.80;99.90;;;;;;5085456;28;20024;-46
2021/01/07 07:18:39;;;;;;;31.55;14.52;;;1.80;99.90;;;;;;5085695;28;20405;-47
2021/01/07 07:21:21;;;;;;;30.67;15.27;;;1.80;99.90;;;;;;5085718;28;20032;-47
2021/01/07 07:23:47;;;;;;;30.40;14.05;;;1.80;99.90;;;;;;5085509;28;20059;-47
2021/01/07 07:26:32;;;;;;;29.83;13.73;;;1.80;99.90;;;;;;5085326;28;20104;-48
2021/01/07 07:29:02;;;;;;;29.95;13.43;;;1.80;99.90;;;;;;5086224;28;20061;-47
2021/01/07 07:31:46;;;;;;;30.00;13.32;;;1.80;99.90;;;;;;5085962;28;20024;-50
2021/01/07 07:34:14;;;;;;;28.42;12.27;;;1.70;99.90;;;;;;5085037;28;20036;-48
2021/01/07 07:36:42;;;;;;;28.23;13.10;;;1.80;99.90;;;;;;5085345;28;20103;-48
2021/01/07 07:39:08;;;;;;;27.92;13.48;;;1.80;99.90;;;;;;5085168;28;20054;-47
2021/01/07 07:41:44;;;;;;;24.00;12.80;;;1.80;99.90;;;;;;5085163;28;20032;-46
2021/01/07 07:44:12;;;;;;;27.58;13.27;;;1.90;99.90;;;;;;5084825;28;20422;-48
2021/01/07 07:46:38;;;;;;;25.85;12.27;;;1.90;99.90;;;;;;5085274;28;20419;-47
2021/01/07 07:49:05;;;;;;;30.17;13.35;;;2.00;99.90;;;;;;5085262;28;20114;-47
2021/01/07 07:51:31;;;;;;;26.63;13.15;;;2.00;99.90;;;;;;5085228;28;20509;-46
2021/01/07 07:54:10;;;;;;;25.85;13.00;;;2.00;99.90;;;;;;5085731;28;20032;-49
2021/01/07 07:56:37;;;;;;;38.00;17.23;;;2.10;99.90;;;;;;5085089;28;20055;-48
2021/01/07 07:59:07;;;;;;;28.95;13.75;;;2.10;99.90;;;;;;5084976;28;20024;-47
2021/01/07 08:01:49;;;;;;;29.25;14.23;;;2.10;99.90;;;;;;5080972;28;20035;-47
2021/01/07 08:04:17;;;;;;;26.65;12.50;;;2.10;99.90;;;;;;5082256;28;20043;-47
2021/01/07 08:06:47;;;;;;;24.60;12.85;;;2.10;99.90;;;;;;5066362;28;20052;-48
2021/01/07 08:09:17;;;;;;;24.10;11.63;;;2.20;99.90;;;;;;5066184;28;20885;-48
2021/01/07 08:11:54;;;;;;;22.45;11.38;;;2.20;99.90;;;;;;5066236;28;20020;-45
2021/01/07 08:14:22;;;;;;;20.70;9.95;;;2.10;99.90;;;;;;5078986;28;20031;-48
2021/01/07 08:16:53;;;;;;;21.83;11.43;;;2.10;99.90;;;;;;5086332;28;20024;-47
2021/01/07 08:19:21;;;;;;;23.48;10.60;;;2.00;99.90;;;;;;5085925;28;20504;-48
2021/01/07 08:21:52;;;;;;;25.15;11.40;;;1.90;99.90;;;;;;5086259;28;20039;-47
2021/01/07 08:24:20;;;;;;;25.35;12.88;;;1.80;99.90;;;;;;5086038;28;20025;-45
2021/01/07 08:27:10;;;;;;;26.33;11.15;;;1.90;99.90;;;;;;5086286;28;20020;-46
2021/01/07 08:29:39;;;;;;;23.80;11.82;;;2.10;99.90;;;;;;5084861;28;20024;-47
2021/01/07 08:32:06;;;;;;;23.15;11.73;;;2.10;99.90;;;;;;5086431;28;20025;-47
2021/01/07 08:34:33;;;;;;;25.42;12.15;;;2.10;99.90;;;;;;5084883;28;20502;-49
2021/01/07 08:37:13;;;;;;;24.77;11.88;;;2.10;99.90;;;;;;5086857;28;20051;-46
2021/01/07 08:39:40;;;;;;;23.10;11.43;;;2.30;99.90;;;;;;5086041;28;20074;-47
2021/01/07 08:42:06;;;;;;;20.55;10.98;;;2.10;99.90;;;;;;5085669;28;20054;-47
2021/01/07 08:44:33;;;;;;;25.08;11.88;;;2.10;99.90;;;;;;5085782;28;20020;-47
2021/01/07 08:46:59;;;;;;;22.58;11.27;;;2.20;99.90;;;;;;5085117;28;20119;-49
2021/01/07 08:49:25;;;;;;;23.80;11.75;;;2.40;99.90;;;;;;5084184;28;20096;-47
2021/01/07 08:51:54;;;;;;;26.38;11.63;;;2.40;99.90;;;;;;5085870;28;20024;-48
2021/01/07 08:54:21;;;;;;;23.33;11.38;;;2.40;99.90;;;;;;5084807;28;20749;-45
2021/01/07 08:56:48;;;;;;;23.67;11.48;;;2.50;99.90;;;;;;5085921;28;20028;-48
2021/01/07 08:59:22;;;;;;;28.70;12.90;;;2.50;99.90;;;;;;5084672;28;20051;-47
2021/01/07 09:01:52;;;;;;;25.42;12.85;;;2.50;99.90;;;;;;5083946;28;20027;-46
2021/01/07 09:04:35;;;;;;;29.38;14.38;;;2.50;99.90;;;;;;5078898;28;20731;-47
2021/01/07 09:07:12;;;;;;;27.63;12.43;;;2.50;99.90;;;;;;5075143;28;20058;-51
2021/01/07 09:09:52;;;;;;;27.02;12.82;;;2.50;99.90;;;;;;5084714;28;20484;-48
2021/01/07 09:12:32;;;;;;;29.80;14.13;;;2.60;99.90;;;;;;5085888;28;20111;-47
2021/01/07 09:15:21;;;;;;;26.10;11.75;;;2.70;99.90;;;;;;5085200;28;20116;-47
2021/01/07 09:17:48;;;;;;;23.38;10.93;;;2.60;99.90;;;;;;5083136;28;20111;-51
2021/01/07 09:20:22;;;;;;;27.15;11.40;;;2.60;99.90;;;;;;5084561;28;20029;-48
2021/01/07 09:22:49;;;;;;;25.67;12.15;;;2.70;99.90;;;;;;5086170;28;20016;-47
2021/01/07 09:25:20;;;;;;;24.45;11.05;;;2.70;99.90;;;;;;5085595;28;20385;-48
2021/01/07 09:27:50;;;;;;;24.17;10.57;;;2.60;99.90;;;;;;5074974;28;20024;-49
2021/01/07 09:30:16;;;;;;;20.05;10.15;;;2.60;99.90;;;;;;5069534;28;20028;-47
2021/01/07 09:32:44;;;;;;;24.77;12.10;;;2.70;99.90;;;;;;5069242;28;20039;-47
2021/01/07 09:35:11;;;;;;;21.30;11.27;;;2.60;99.90;;;;;;5083791;28;20130;-47
2021/01/07 09:37:37;;;;;;;24.17;11.32;;;2.70;99.90;;;;;;5087907;28;20040;-50
2021/01/07 09:40:05;;;;;;;22.08;10.63;;;2.70;99.90;;;;;;5088574;28;20024;-46
2021/01/07 09:42:32;;;;;;;20.23;10.30;;;2.70;99.90;;;;;;5088662;28;20535;-47
2021/01/07 09:44:58;;;;;;;23.20;9.95;;;2.70;99.90;;;;;;5087903;28;20028;-51
2021/01/07 09:47:24;;;;;;;19.90;10.15;;;2.70;99.90;;;;;;5088964;28;20103;-48
2021/01/07 09:49:49;;;;;;;23.70;11.18;;;2.70;99.90;;;;;;5089889;28;20679;-51
2021/01/07 09:52:15;;;;;;;20.73;10.55;;;2.80;99.90;;;;;;5088949;28;20498;-48
2021/01/07 09:54:41;;;;;;;23.00;10.93;;;2.80;99.90;;;;;;5086411;28;20107;-47
2021/01/07 09:57:07;;;;;;;24.83;11.38;;;2.90;99.90;;;;;;5084975;28;20498;-48
2021/01/07 09:59:34;;;;;;;26.05;12.43;;;2.80;99.90;;;;;;5086974;28;20056;-47
2021/01/07 10:02:10;;;;;;;21.23;10.98;;;2.90;99.90;;;;;;5087379;28;20378;-50
2021/01/07 10:04:36;;;;;;;26.15;12.20;;;2.90;99.90;;;;;;5088862;28;20024;-50
2021/01/07 10:07:06;;;;;;;23.33;12.05;;;3.00;99.90;;;;;;5089043;28;20066;-50
2021/01/07 10:09:32;;;;;;;26.50;12.15;;;3.00;99.90;;;;;;5088022;28;20028;-48
2021/01/07 10:11:58;;;;;;;24.15;11.85;;;3.00;99.90;;;;;;5088983;28;20058;-48
2021/01/07 10:14:25;;;;;;;23.23;11.00;;;2.90;99.90;;;;;;5087894;28;20027;-50
2021/01/07 10:16:59;;;;;;;23.75;12.27;;;2.90;99.90;;;;;;5088416;28;20048;-47
2021/01/07 10:19:28;;;;;;;22.33;11.73;;;2.90;99.90;;;;;;5085132;28;20913;-48
2021/01/07 10:22:00;;;;;;;23.85;11.75;;;2.90;99.90;;;;;;5086428;28;20677;-48
2021/01/07 10:24:27;;;;;;;20.80;10.38;;;3.00;99.90;;;;;;5087947;28;20035;-47
2021/01/07 10:26:55;;;;;;;21.90;11.63;;;3.00;99.90;;;;;;5088604;28;20043;-46
2021/01/07 10:29:22;;;;;;;25.45;12.40;;;3.00;99.90;;;;;;5086706;28;20024;-49
2021/01/07 10:31:48;;;;;;;25.48;12.73;;;3.00;99.90;;;;;;5087212;28;20100;-50
2021/01/07 10:34:14;;;;;;;25.25;12.10;;;3.00;99.90;;;;;;5086359;28;20111;-47
2021/01/07 10:36:41;;;;;;;21.27;10.90;;;3.10;99.90;;;;;;5086636;28;20338;-51
2021/01/07 10:39:10;;;;;;;21.88;10.95;;;3.00;99.90;;;;;;5085470;28;20016;-50
2021/01/07 10:41:42;;;;;;;22.55;10.82;;;3.10;99.90;;;;;;5086231;28;20383;-51
2021/01/07 10:44:08;;;;;;;22.98;11.98;;;3.00;99.90;;;;;;5085988;28;20039;-47
2021/01/07 10:46:39;;;;;;;23.05;11.25;;;3.10;99.90;;;;;;5086380;28;20024;-47
2021/01/07 10:49:06;;;;;;;24.13;12.02;;;3.10;99.90;;;;;;5086438;28;20080;-49
2021/01/07 10:51:45;;;;;;;23.02;11.68;;;3.10;99.90;;;;;;5086323;28;20055;-48
2021/01/07 10:54:16;;;;;;;23.13;11.43;;;3.20;99.90;;;;;;5086022;28;20448;-50
2021/01/07 10:57:19;;;;;;;20.70;10.85;;;3.20;99.90;;;;;;5086152;28;20020;-47
2021/01/07 10:59:51;;;;;;;22.60;10.80;;;3.20;99.90;;;;;;5085954;28;20036;-50
2021/01/07 11:02:42;;;;;;;22.67;10.32;;;3.20;99.90;;;;;;5085134;28;20031;-50
2021/01/07 11:05:17;;;;;;;21.42;10.50;;;3.30;99.90;;;;;;5085913;28;20047;-49
2021/01/07 11:07:56;;;;;;;22.58;11.27;;;3.30;99.90;;;;;;5085156;28;20516;-46
2021/01/07 11:10:22;;;;;;;25.77;12.20;;;3.30;99.90;;;;;;5085866;28;20036;-48
2021/01/07 11:12:57;;;;;;;23.33;11.13;;;3.30;99.90;;;;;;5085541;28;20031;-49
2021/01/07 11:15:28;;;;;;;22.08;10.88;;;3.10;99.90;;;;;;5084983;28;20114;-49
2021/01/07 11:18:19;;;;;;;22.15;11.30;;;3.00;99.90;;;;;;5084680;28;20031;-50
2021/01/07 11:20:50;;;;;;;21.55;10.50;;;3.20;99.90;;;;;;5085638;28;20046;-50
2021/01/07 11:23:18;;;;;;;35.30;15.55;;;3.20;99.90;;;;;;5085498;28;20032;-48
2021/01/07 11:25:48;;;;;;;29.42;14.07;;;3.30;99.90;;;;;;5084223;28;20024;-46
2021/01/07 11:28:17;;;;;;;30.38;14.10;;;3.30;99.90;;;;;;5079460;28;20028;-49
2021/01/07 11:30:44;;;;;;;23.95;11.10;;;3.20;99.90;;;;;;5066231;28;20402;-47
2021/01/07 11:33:11;;;;;;;23.52;11.00;;;3.30;99.90;;;;;;5082719;28;20040;-48
2021/01/07 11:35:37;;;;;;;22.73;10.93;;;3.30;99.90;;;;;;5087165;28;20142;-48
2021/01/07 11:38:04;;;;;;;21.67;10.93;;;3.40;99.90;;;;;;5086418;28;20051;-49
2021/01/07 11:40:43;;;;;;;21.63;11.05;;;3.40;99.90;;;;;;5085972;28;20084;-46
2021/01/07 11:43:23;;;;;;;24.58;11.27;;;3.50;99.90;;;;;;5084888;28;20024;-47
2021/01/07 11:46:02;;;;;;;18.63;9.32;;;3.50;99.90;;;;;;5085533;28;20363;-48
2021/01/07 11:48:31;;;;;;;24.08;10.68;;;3.30;99.90;;;;;;5084533;28;20068;-47
2021/01/07 11:51:06;;;;;;;26.55;10.82;;;3.20;99.90;;;;;;5085429;28;20498;-50
2021/01/07 11:53:33;;;;;;;22.58;10.73;;;3.10;99.90;;;;;;5085900;28;20085;-48
2021/01/07 11:56:00;;;;;;;24.40;10.35;;;3.20;99.90;;;;;;5085008;28;20024;-48
2021/01/07 11:58:33;;;;;;;20.02;10.00;;;3.30;99.90;;;;;;5084771;28;20766;-49
2021/01/07 12:00:59;;;;;;;23.23;11.60;;;3.30;99.90;;;;;;5084981;28;20020;-47
2021/01/07 12:03:32;;;;;;;18.90;9.57;;;3.50;99.90;;;;;;5084729;28;20027;-47
2021/01/07 12:06:03;;;;;;;17.83;9.57;;;3.60;99.90;;;;;;5085142;28;20020;-49
2021/01/07 12:08:52;;;;;;;18.65;8.75;;;3.50;99.90;;;;;;5084734;28;20020;-48
2021/01/07 12:11:30;;;;;;;19.75;9.32;;;3.60;99.90;;;;;;5084330;28;20052;-47
2021/01/07 12:14:08;;;;;;;23.60;11.65;;;3.60;99.90;;;;;;5084308;28;20563;-50
2021/01/07 12:16:48;;;;;;;25.52;11.80;;;3.30;99.90;;;;;;5084798;28;20509;-50
2021/01/07 12:19:14;;;;;;;24.25;11.68;;;3.50;99.90;;;;;;5083752;28;20299;-49
2021/01/07 12:21:41;;;;;;;20.35;10.85;;;3.50;99.90;;;;;;5084687;28;20024;-48
2021/01/07 12:24:08;;;;;;;19.50;9.57;;;3.50;99.90;;;;;;5084013;28;20058;-47
2021/01/07 12:26:35;;;;;;;16.48;9.10;;;3.40;99.90;;;;;;5084916;28;20270;-48
2021/01/07 12:29:01;;;;;;;18.45;9.35;;;3.60;99.90;;;;;;5085419;28;20032;-49
2021/01/07 12:31:29;;;;;;;17.85;9.48;;;3.60;99.90;;;;;;5084367;28;20036;-49
2021/01/07 12:34:03;;;;;;;16.85;8.55;;;3.50;99.90;;;;;;5084532;28;20024;-49
2021/01/07 12:36:43;;;;;;;;;;;3.50;99.90;;;;;;5084460;28;20545;-50
2021/01/07 12:39:30;;;;;;;18.65;8.90;;;3.60;99.90;;;;;;5084467;28;19904;-51
2021/01/07 12:41:56;;;;;;;15.27;7.90;;;3.70;99.90;;;;;;5084001;28;20028;-50
2021/01/07 12:44:24;;;;;;;16.02;7.85;;;3.70;99.90;;;;;;5083926;28;20032;-49
2021/01/07 12:46:55;;;;;;;15.00;7.80;;;3.90;99.90;;;;;;5084475;28;20582;-50